Time;durP1;ratioP1;P1;durP2;ratioP2;P2;SDS_P1;SDS_P2;PMS_P1;PMS_P2;Temp;Humidity;BMP_temperature;BMP_pressure;BME280_temperature;BME280_humidity;BME280_pressure;Samples;Min_cycle;Max_cycle;Signal;HPM_P1;HPM_P2
2022/04/05 00:00:28;;;;;;;;;;;11.20;99.90;;;;;;5102786;28;19908;-74
2022/04/05 00:02:55;;;;;;;;;;;11.10;99.90;;;;;;5098772;28;19920;-74
2022/04/05 00:05:21;;;;;;;;;;;11.10;99.90;;;;;;5093761;28;19912;-74
2022/04/05 00:07:46;;;;;;;;;;;11.20;99.90;;;;;;5093293;28;20033;-74
2022/04/05 00:10:12;;;;;;;;;;;11.20;99.90;;;;;;5093843;28;19926;-75
2022/04/05 00:12:38;;;;;;;;;;;11.20;99.90;;;;;;5105531;28;19955;-75
2022/04/05 00:15:05;;;;;;;;;;;11.20;99.90;;;;;;5093366;28;20250;-74
2022/04/05 00:17:30;;;;;;;;;;;11.20;99.90;;;;;;5093134;28;19908;-74
2022/04/05 00:19:56;;;;;;;;;;;11.10;99.90;;;;;;5093396;28;19922;-75
2022/04/05 00:22:21;;;;;;;;;;;11.20;99.90;;;;;;5092325;28;19947;-75
2022/04/05 00:24:47;;;;;;;;;;;11.10;99.90;;;;;;5091524;28;19908;-75
2022/04/05 00:27:13;;;;;;;;;;;11.10;99.90;;;;;;5092589;28;19915;-75
2022/04/05 00:29:38;;;;;;;;;;;11.10;99.90;;;;;;5092884;28;19912;-74
2022/04/05 00:32:04;;;;;;;;;;;11.10;99.90;;;;;;5092303;28;20387;-75
2022/04/05 00:34:30;;;;;;;;;;;11.10;99.90;;;;;;5091584;28;20280;-75
2022/04/05 00:36:56;;;;;;;;;;;11.10;99.90;;;;;;5093519;28;19908;-75
2022/04/05 00:39:22;;;;;;;;;;;11.10;99.90;;;;;;5093415;28;19908;-75
2022/04/05 00:41:48;;;;;;;;;;;11.10;99.90;;;;;;5092392;28;20536;-75
2022/04/05 00:44:14;;;;;;;;;;;11.10;99.90;;;;;;5093327;28;19934;-75
2022/04/05 00:46:39;;;;;;;;;;;11.10;99.90;;;;;;5092491;28;19909;-76
2022/04/05 00:49:05;;;;;;;;;;;11.10;99.90;;;;;;5093188;28;19923;-75
2022/04/05 00:51:30;;;;;;;;;;;11.10;99.90;;;;;;5091834;28;19994;-75
2022/04/05 00:54:03;;;;;;;;;;;11.10;99.90;;;;;;5093228;28;20339;-75
2022/04/05 00:56:30;;;;;;;;;;;11.10;99.90;;;;;;5092907;28;19954;-75
2022/04/05 00:58:58;;;;;;;;;;;11.10;99.90;;;;;;5092372;28;19909;-75
2022/04/05 01:01:26;;;;;;;;;;;11.00;99.90;;;;;;5092810;28;20010;-75
2022/04/05 01:03:53;;;;;;;;;;;11.00;99.90;;;;;;5092482;28;19953;-75
2022/04/05 01:06:30;;;;;;;;;;;11.00;99.90;;;;;;5091658;28;20460;-75
2022/04/05 01:08:56;;;;;;;;;;;11.00;99.90;;;;;;5092744;28;19912;-75
2022/04/05 01:11:22;;;;;;;;;;;10.90;99.90;;;;;;5092939;28;19912;-75
2022/04/05 01:13:48;;;;;;;;;;;10.90;99.90;;;;;;5092038;28;19958;-75
2022/04/05 01:16:14;;;;;;;;;;;10.90;99.90;;;;;;5096538;28;19998;-76
2022/04/05 01:18:39;;;;;;;;;;;10.90;99.90;;;;;;5099137;28;19908;-75
2022/04/05 01:21:05;;;;;;;;;;;10.80;99.90;;;;;;5099555;28;19908;-74
2022/04/05 01:23:30;;;;;;;;;;;10.80;99.90;;;;;;5099455;28;20245;-75
2022/04/05 01:25:56;;;;;;;;;;;10.90;99.90;;;;;;5104535;28;19950;-75
2022/04/05 01:28:25;;;;;;;;;;;10.80;99.90;;;;;;5104633;28;19995;-75
2022/04/05 01:30:51;;;;;;;;;;;10.80;99.90;;;;;;5098860;28;19912;-75
2022/04/05 01:33:16;;;;;;;;;;;10.80;99.90;;;;;;5099552;28;19916;-75
2022/04/05 01:35:42;;;;;;;;;;;10.70;99.90;;;;;;5098723;28;19961;-75
2022/04/05 01:38:09;;;;;;;;;;;10.80;99.90;;;;;;5099399;28;19908;-75
2022/04/05 01:40:34;;;;;;;;;;;10.80;99.90;;;;;;5098352;28;19962;-75
2022/04/05 01:43:00;;;;;;;;;;;10.80;99.90;;;;;;5099190;28;19908;-76
2022/04/05 01:45:26;;;;;;;;;;;10.70;99.90;;;;;;5099737;28;20380;-75
2022/04/05 01:47:51;;;;;;;;;;;10.70;99.90;;;;;;5098416;28;19908;-76
2022/04/05 01:50:17;;;;;;;;;;;10.80;99.90;;;;;;5098854;28;19951;-75
2022/04/05 01:52:42;;;;;;;;;;;10.70;99.90;;;;;;5098502;28;19918;-75
2022/04/05 01:55:08;;;;;;;;;;;10.70;99.90;;;;;;5099678;28;20349;-75
2022/04/05 01:57:34;;;;;;;;;;;10.70;99.90;;;;;;5098603;28;19923;-75
2022/04/05 02:00:01;;;;;;;;;;;10.70;99.90;;;;;;5099775;28;19946;-74
2022/04/05 02:02:27;;;;;;;;;;;10.70;99.90;;;;;;5099036;28;19971;-77
2022/04/05 02:04:55;;;;;;;;;;;10.60;99.90;;;;;;5097689;28;20141;-75
2022/04/05 02:07:20;;;;;;;;;;;10.60;99.90;;;;;;5099028;28;19912;-75
2022/04/05 02:09:48;;;;;;;;;;;10.60;99.90;;;;;;5098611;28;20296;-75
2022/04/05 02:12:14;;;;;;;;;;;10.60;99.90;;;;;;5099098;28;19918;-75
2022/04/05 02:14:40;;;;;;;;;;;10.60;99.90;;;;;;5098624;28;19908;-75
2022/04/05 02:17:07;;;;;;;;;;;10.60;99.90;;;;;;5098998;28;19999;-75
2022/04/05 02:19:32;;;;;;;;;;;10.50;99.90;;;;;;5099175;28;19913;-75
2022/04/05 02:21:58;;;;;;;;;;;10.50;99.90;;;;;;5098148;28;19919;-75
2022/04/05 02:24:23;;;;;;;;;;;10.50;99.90;;;;;;5098922;28;19912;-76
2022/04/05 02:26:49;;;;;;;;;;;10.50;99.90;;;;;;5096372;28;19943;-76
2022/04/05 02:29:15;;;;;;;;;;;10.50;99.90;;;;;;5095532;28;19955;-75
2022/04/05 02:31:41;;;;;;;;;;;10.40;99.90;;;;;;5094707;28;20250;-75
2022/04/05 02:34:07;;;;;;;;;;;10.40;99.90;;;;;;5095685;28;19998;-76
2022/04/05 02:36:33;;;;;;;;;;;10.40;99.90;;;;;;5095282;28;19908;-75
2022/04/05 02:38:58;;;;;;;;;;;10.40;99.90;;;;;;5095173;28;19915;-75
2022/04/05 02:41:24;;;;;;;;;;;10.40;99.90;;;;;;5096260;28;19908;-74
2022/04/05 02:43:49;;;;;;;;;;;10.40;99.90;;;;;;5095662;28;20326;-75
2022/04/05 02:46:15;;;;;;;;;;;10.40;99.90;;;;;;5095266;28;19908;-75
2022/04/05 02:48:43;;;;;;;;;;;10.40;99.90;;;;;;5094966;28;19960;-75
2022/04/05 02:51:17;;;;;;;;;;;10.40;99.90;;;;;;5095516;28;19918;-75
2022/04/05 02:53:43;;;;;;;;;;;10.50;99.90;;;;;;5094941;28;20280;-75
2022/04/05 02:56:09;;;;;;;;;;;10.40;99.90;;;;;;5095343;28;19908;-75
2022/04/05 02:58:35;;;;;;;;;;;10.40;99.90;;;;;;5095012;28;19948;-75
2022/04/05 03:01:01;;;;;;;;;;;10.40;99.90;;;;;;5094289;28;19982;-75
2022/04/05 03:03:27;;;;;;;;;;;10.40;99.90;;;;;;5095249;28;20361;-75
2022/04/05 03:05:52;;;;;;;;;;;10.50;99.90;;;;;;5094512;28;20361;-75
2022/04/05 03:08:18;;;;;;;;;;;10.40;99.90;;;;;;5095261;28;19908;-75
2022/04/05 03:10:43;;;;;;;;;;;10.40;99.90;;;;;;5093757;28;19912;-75
2022/04/05 03:13:09;;;;;;;;;;;10.40;99.90;;;;;;5094849;28;19912;-75
2022/04/05 03:15:34;;;;;;;;;;;10.40;99.90;;;;;;5094837;28;19908;-75
2022/04/05 03:18:00;;;;;;;;;;;10.40;99.90;;;;;;5094406;28;19912;-75
2022/04/05 03:20:26;;;;;;;;;;;10.40;99.90;;;;;;5094716;28;19914;-75
2022/04/05 03:22:52;;;;;;;;;;;10.40;99.90;;;;;;5094319;28;20384;-75
2022/04/05 03:25:18;;;;;;;;;;;10.40;99.90;;;;;;5094932;28;19915;-75
2022/04/05 03:27:44;;;;;;;;;;;10.40;99.90;;;;;;5094230;28;19908;-75
2022/04/05 03:30:10;;;;;;;;;;;10.40;99.90;;;;;;5094382;28;19916;-76
2022/04/05 03:32:36;;;;;;;;;;;10.30;99.90;;;;;;5094523;28;19912;-75
2022/04/05 03:35:02;;;;;;;;;;;10.30;99.90;;;;;;5093496;28;20003;-75
2022/04/05 03:37:28;;;;;;;;;;;10.20;99.90;;;;;;5094198;28;20437;-75
2022/04/05 03:39:54;;;;;;;;;;;10.20;99.90;;;;;;5093273;28;19999;-75
2022/04/05 03:42:21;;;;;;;;;;;10.20;99.90;;;;;;5094351;28;19908;-75
2022/04/05 03:44:46;;;;;;;;;;;10.10;99.90;;;;;;5093487;28;19953;-75
2022/04/05 03:47:12;;;;;;;;;;;10.10;99.90;;;;;;5093765;28;19908;-75
2022/04/05 03:49:37;;;;;;;;;;;10.10;99.90;;;;;;5094193;28;19972;-75
2022/04/05 03:52:03;;;;;;;;;;;10.00;99.90;;;;;;5092993;28;19982;-75
2022/04/05 03:54:28;;;;;;;;;;;10.00;99.90;;;;;;5094100;28;19915;-75
2022/04/05 03:56:54;;;;;;;;;;;10.00;99.90;;;;;;5093532;28;19930;-75
2022/04/05 03:59:20;;;;;;;;;;;10.00;99.90;;;;;;5095764;28;19915;-75
2022/04/05 04:01:45;;;;;;;;;;;10.00;99.90;;;;;;5093068;28;19962;-75
2022/04/05 04:04:11;;;;;;;;;;;10.00;99.90;;;;;;5093743;28;19908;-75
2022/04/05 04:06:36;;;;;;;;;;;10.10;99.90;;;;;;5094009;28;20045;-75
2022/04/05 04:09:02;;;;;;;;;;;10.10;99.90;;;;;;5092966;28;19982;-75
2022/04/05 04:11:28;;;;;;;;;;;10.00;99.90;;;;;;5093533;28;20327;-75
2022/04/05 04:13:53;;;;;;;;;;;10.00;99.90;;;;;;5093200;28;19957;-75
2022/04/05 04:16:19;;;;;;;;;;;10.10;99.90;;;;;;5093762;28;19953;-75
2022/04/05 04:18:45;;;;;;;;;;;10.00;99.90;;;;;;5093197;28;19930;-75
2022/04/05 04:21:10;;;;;;;;;;;10.00;99.90;;;;;;5093666;28;19915;-75
2022/04/05 04:23:36;;;;;;;;;;;10.00;99.90;;;;;;5093718;28;19908;-75
2022/04/05 04:26:02;;;;;;;;;;;10.00;99.90;;;;;;5092810;28;20435;-75
2022/04/05 04:28:28;;;;;;;;;;;10.00;99.90;;;;;;5093698;28;20295;-75
2022/04/05 04:30:54;;;;;;;;;;;9.90;99.90;;;;;;5092989;28;20321;-75
2022/04/05 04:33:20;;;;;;;;;;;9.90;99.90;;;;;;5093302;28;19999;-75
2022/04/05 04:35:45;;;;;;;;;;;9.90;99.90;;;;;;5092621;28;19991;-74
2022/04/05 04:38:12;;;;;;;;;;;9.90;99.90;;;;;;5093184;28;19915;-75
2022/04/05 04:40:38;;;;;;;;;;;9.90;99.90;;;;;;5093469;28;20332;-75
2022/04/05 04:43:04;;;;;;;;;;;9.90;99.90;;;;;;5092380;28;19950;-75
2022/04/05 04:45:31;;;;;;;;;;;9.90;99.90;;;;;;5093145;28;19958;-74
2022/04/05 04:47:56;;;;;;;;;;;9.90;99.90;;;;;;5092746;28;19915;-75
2022/04/05 04:50:22;;;;;;;;;;;9.90;99.90;;;;;;5092611;28;19912;-74
2022/04/05 04:52:48;;;;;;;;;;;9.90;99.90;;;;;;5092464;28;20277;-75
2022/04/05 04:55:13;;;;;;;;;;;9.90;99.90;;;;;;5093297;28;19953;-74
2022/04/05 04:57:39;;;;;;;;;;;9.90;99.90;;;;;;5093266;28;19915;-75
2022/04/05 05:00:05;;;;;;;;;;;9.90;99.90;;;;;;5092494;28;19912;-75
2022/04/05 05:02:31;;;;;;;;;;;9.90;99.90;;;;;;5093042;28;19994;-75
2022/04/05 05:04:56;;;;;;;;;;;9.90;99.90;;;;;;5092449;28;20099;-75
2022/04/05 05:07:22;;;;;;;;;;;9.90;99.90;;;;;;5093133;28;19908;-75
2022/04/05 05:09:47;;;;;;;;;;;9.90;99.90;;;;;;5091203;28;19920;-75
2022/04/05 05:12:13;;;;;;;;;;;9.90;99.90;;;;;;5092829;28;19935;-75
2022/04/05 05:14:39;;;;;;;;;;;9.90;99.90;;;;;;5092942;28;19912;-75
2022/04/05 05:17:05;;;;;;;;;;;9.90;99.90;;;;;;5092070;28;19959;-75
2022/04/05 05:19:31;;;;;;;;;;;9.90;99.90;;;;;;5092778;28;20361;-75
2022/04/05 05:21:56;;;;;;;;;;;9.90;99.90;;;;;;5092269;28;19977;-75
2022/04/05 05:24:22;;;;;;;;;;;9.90;99.90;;;;;;5092351;28;19912;-75
2022/04/05 05:26:48;;;;;;;;;;;10.00;99.90;;;;;;5091061;28;20048;-75
2022/04/05 05:29:14;;;;;;;;;;;10.00;99.90;;;;;;5092549;28;19916;-75
2022/04/05 05:31:40;;;;;;;;;;;10.00;99.90;;;;;;5092014;28;20007;-75
2022/04/05 05:34:06;;;;;;;;;;;10.00;99.90;;;;;;5091785;28;19951;-75
2022/04/05 05:36:31;;;;;;;;;;;10.00;99.90;;;;;;5092774;28;19917;-75
2022/04/05 05:38:57;;;;;;;;;;;10.10;99.90;;;;;;5092151;28;20344;-75
2022/04/05 05:41:22;;;;;;;;;;;10.10;99.90;;;;;;5091085;28;19918;-74
2022/04/05 05:43:48;;;;;;;;;;;10.10;99.90;;;;;;5092208;28;20369;-75
2022/04/05 05:46:14;;;;;;;;;;;10.10;99.90;;;;;;5091364;28;19914;-75
2022/04/05 05:48:40;;;;;;;;;;;10.10;99.90;;;;;;5092123;28;19909;-75
2022/04/05 05:51:06;;;;;;;;;;;10.10;99.90;;;;;;5091715;28;19939;-75
2022/04/05 05:53:32;;;;;;;;;;;10.10;99.90;;;;;;5092144;28;19961;-74
2022/04/05 05:55:57;;;;;;;;;;;10.10;99.90;;;;;;5091910;28;19916;-75
2022/04/05 05:58:23;;;;;;;;;;;10.10;99.90;;;;;;5092462;28;19978;-74
2022/04/05 06:00:48;;;;;;;;;;;10.10;99.90;;;;;;5092022;28;19993;-74
2022/04/05 06:03:14;;;;;;;;;;;10.10;99.90;;;;;;5095940;28;19908;-75
2022/04/05 06:05:40;;;;;;;;;;;10.10;99.90;;;;;;5096159;28;19997;-75
2022/04/05 06:08:06;;;;;;;;;;;10.00;99.90;;;;;;5095633;28;19970;-75
2022/04/05 06:10:31;;;;;;;;;;;10.00;99.90;;;;;;5095894;28;19913;-75
2022/04/05 06:12:57;;;;;;;;;;;10.00;99.90;;;;;;5095313;28;19923;-75
2022/04/05 06:15:25;;;;;;;;;;;10.00;99.90;;;;;;5096284;28;19912;-75
2022/04/05 06:17:51;;;;;;;;;;;10.00;99.90;;;;;;5095888;28;19971;-75
2022/04/05 06:20:17;;;;;;;;;;;10.00;99.90;;;;;;5095549;28;20383;-75
2022/04/05 06:22:44;;;;;;;;;;;9.90;99.90;;;;;;5095626;28;19950;-76
2022/04/05 06:25:11;;;;;;;;;;;10.00;99.90;;;;;;5095273;28;19955;-75
2022/04/05 06:27:37;;;;;;;;;;;10.00;99.90;;;;;;5095422;28;19912;-75
2022/04/05 06:30:03;;;;;;;;;;;10.00;99.90;;;;;;5094522;28;19912;-75
2022/04/05 06:32:28;;;;;;;;;;;10.00;99.90;;;;;;5095006;28;19965;-75
2022/04/05 06:34:54;;;;;;;;;;;10.00;99.90;;;;;;5095251;28;20229;-75
2022/04/05 06:37:20;;;;;;;;;;;10.00;99.90;;;;;;5094948;28;20002;-75
2022/04/05 06:39:46;;;;;;;;;;;10.00;99.90;;;;;;5095783;28;19969;-75
2022/04/05 06:42:11;;;;;;;;;;;10.00;99.90;;;;;;5095017;28;19908;-75
2022/04/05 06:44:37;;;;;;;;;;;10.00;99.90;;;;;;5095059;28;19912;-76
2022/04/05 06:47:03;;;;;;;;;;;10.10;99.90;;;;;;5094757;28;19912;-75
2022/04/05 06:49:29;;;;;;;;;;;10.10;99.90;;;;;;5094169;28;20369;-76
2022/04/05 06:51:54;;;;;;;;;;;10.10;99.90;;;;;;5094632;28;19978;-75
2022/04/05 06:54:20;;;;;;;;;;;10.10;99.90;;;;;;5093703;28;19916;-75
2022/04/05 06:56:45;;;;;;;;;;;10.00;99.90;;;;;;5094786;28;20345;-75
2022/04/05 06:59:11;;;;;;;;;;;10.00;99.90;;;;;;5094065;28;20284;-75
2022/04/05 07:01:37;;;;;;;;;;;10.10;99.90;;;;;;5095844;28;19970;-75
2022/04/05 07:04:03;;;;;;;;;;;10.10;99.90;;;;;;5095633;28;20325;-76
2022/04/05 07:06:29;;;;;;;;;;;10.20;99.90;;;;;;5094437;28;20292;-76
2022/04/05 07:08:55;;;;;;;;;;;10.20;99.90;;;;;;5094835;28;19908;-76
2022/04/05 07:11:20;;;;;;;;;;;10.20;99.90;;;;;;5094185;28;20287;-76
2022/04/05 07:13:46;;;;;;;;;;;10.30;99.90;;;;;;5093902;28;20487;-77
2022/04/05 07:16:11;;;;;;;;;;;10.30;99.90;;;;;;5094627;28;19947;-77
2022/04/05 07:18:37;;;;;;;;;;;10.30;99.90;;;;;;5093452;28;19965;-77
2022/04/05 07:21:03;;;;;;;;;;;10.30;99.90;;;;;;5093728;28;19908;-76
2022/04/05 07:23:28;;;;;;;;;;;10.30;99.90;;;;;;5094553;28;19915;-77
2022/04/05 07:25:54;;;;;;;;;;;10.30;99.90;;;;;;5094231;28;19916;-77
2022/04/05 07:28:19;;;;;;;;;;;10.40;99.90;;;;;;5093788;28;19943;-76
2022/04/05 07:30:45;;;;;;;;;;;10.40;99.90;;;;;;5093226;28;20385;-77
2022/04/05 07:33:11;;;;;;;;;;;10.40;99.90;;;;;;5093794;28;19912;-77
2022/04/05 07:35:36;;;;;;;;;;;10.40;99.90;;;;;;5094026;28;19915;-77
2022/04/05 07:38:02;;;;;;;;;;;10.40;99.90;;;;;;5093737;28;19970;-76
2022/04/05 07:40:47;;;;;;;;;;;10.40;99.90;;;;;;5093592;28;19951;-77
2022/04/05 07:43:17;;;;;;;;;;;10.40;99.90;;;;;;5093712;28;19953;-77
2022/04/05 07:45:44;;;;;;;;;;;10.50;99.90;;;;;;5094460;28;19908;-76
2022/04/05 07:48:10;;;;;;;;;;;10.50;99.90;;;;;;5094216;28;20345;-76
2022/04/05 07:50:36;;;;;;;;;;;10.60;99.90;;;;;;5092917;28;19919;-76
2022/04/05 07:53:01;;;;;;;;;;;10.60;99.90;;;;;;5093684;28;19935;-77
2022/04/05 07:55:27;;;;;;;;;;;10.70;99.90;;;;;;5094260;28;20381;-77
2022/04/05 07:57:52;;;;;;;;;;;10.70;99.90;;;;;;5093040;28;19908;-77
2022/04/05 08:00:18;;;;;;;;;;;10.60;99.90;;;;;;5093480;28;20217;-76
2022/04/05 08:02:44;;;;;;;;;;;10.60;99.90;;;;;;5094165;28;19920;-77
2022/04/05 08:05:09;;;;;;;;;;;10.60;99.90;;;;;;5090239;28;20007;-76
2022/04/05 08:07:35;;;;;;;;;;;10.60;99.90;;;;;;5092409;28;20346;-76
2022/04/05 08:10:01;;;;;;;;;;;10.60;99.90;;;;;;5091395;28;19912;-76
2022/04/05 08:12:34;;;;;;;;;;;10.50;99.90;;;;;;5093319;28;19919;-76
2022/04/05 08:14:59;;;;;;;;;;;10.50;99.90;;;;;;5093206;28;19938;-76
2022/04/05 08:17:25;;;;;;;;;;;10.60;99.90;;;;;;5092122;28;20416;-76
2022/04/05 08:19:50;;;;;;;;;;;10.60;99.90;;;;;;5096646;28;19915;-77
2022/04/05 08:22:16;;;;;;;;;;;10.60;99.90;;;;;;5093122;28;19908;-77
2022/04/05 08:24:42;;;;;;;;;;;10.70;99.90;;;;;;5092638;28;20427;-77
2022/04/05 08:27:07;;;;;;;;;;;10.80;99.90;;;;;;5092429;28;20333;-77
2022/04/05 08:29:39;;;;;;;;;;;10.80;99.90;;;;;;5092080;28;19923;-77
2022/04/05 08:32:05;;;;;;;;;;;11.00;99.90;;;;;;5092615;28;19919;-76
2022/04/05 08:34:31;;;;;;;;;;;11.00;99.90;;;;;;5092175;28;19912;-76
2022/04/05 08:36:57;;;;;;;;;;;11.10;99.90;;;;;;5093482;28;19969;-77
2022/04/05 08:39:23;;;;;;;;;;;11.20;99.90;;;;;;5092627;28;19912;-76
2022/04/05 08:41:49;;;;;;;;;;;11.30;99.90;;;;;;5091989;28;19915;-76
2022/04/05 08:44:18;;;;;;;;;;;11.30;99.90;;;;;;5092698;28;19930;-77
2022/04/05 08:46:44;;;;;;;;;;;11.40;99.90;;;;;;5092664;28;19970;-77
2022/04/05 08:49:11;;;;;;;;;;;11.30;99.90;;;;;;5092438;28;20277;-77
2022/04/05 08:51:36;;;;;;;;;;;11.40;99.90;;;;;;5091558;28;20272;-77
2022/04/05 08:54:02;;;;;;;;;;;11.40;99.90;;;;;;5092466;28;19908;-76
2022/04/05 08:56:30;;;;;;;;;;;11.40;99.90;;;;;;5092694;28;19915;-76
2022/04/05 08:58:56;;;;;;;;;;;11.50;99.90;;;;;;5093566;28;19916;-76
2022/04/05 09:01:22;;;;;;;;;;;11.50;99.90;;;;;;5092501;28;19932;-76
2022/04/05 09:03:47;;;;;;;;;;;11.50;99.90;;;;;;5092955;28;20254;-77
2022/04/05 09:06:32;;;;;;;;;;;11.60;99.90;;;;;;5092429;28;19923;-76
2022/04/05 09:09:08;;;;;;;;;;;11.60;99.90;;;;;;5092342;28;19974;-77
2022/04/05 09:11:34;;;;;;;;;;;11.60;99.90;;;;;;5092560;28;19999;-77
2022/04/05 09:14:01;;;;;;;;;;;11.60;99.90;;;;;;5093231;28;20437;-76
2022/04/05 09:16:34;;;;;;;;;;;11.70;99.90;;;;;;5092514;28;19922;-76
2022/04/05 09:19:28;;;;;;;;;;;11.70;99.90;;;;;;5092528;28;19908;-77
2022/04/05 09:21:57;;;;;;;;;;;11.60;99.90;;;;;;5088114;28;19908;-76
2022/04/05 09:24:36;;;;;;;;;;;11.70;99.90;;;;;;5092093;28;19970;-77
2022/04/05 09:27:02;;;;;;;;;;;11.70;99.90;;;;;;5091308;28;20418;-77
2022/04/05 09:29:51;;;;;;;;;;;11.60;99.90;;;;;;5091558;28;19912;-76
2022/04/05 09:32:33;;;;;;;;;;;11.60;99.90;;;;;;5092089;28;19912;-77
2022/04/05 09:34:59;;;;;;;;;;;11.70;99.90;;;;;;5092612;28;19916;-78
2022/04/05 09:37:25;;;;;;;;;;;11.70;99.90;;;;;;5103254;28;19909;-77
2022/04/05 09:39:51;;;;;;;;;;;11.80;99.90;;;;;;5098413;28;19908;-77
2022/04/05 09:42:17;;;;;;;;;;;11.80;99.90;;;;;;5096279;28;19965;-77
2022/04/05 09:44:43;;;;;;;;;;;11.90;99.90;;;;;;5096791;28;19917;-77
2022/04/05 09:47:10;;;;;;;;;;;11.90;99.90;;;;;;5096075;28;20277;-76
2022/04/05 09:49:40;;;;;;;;;;;11.80;99.90;;;;;;5096530;28;20007;-77
2022/04/05 09:52:21;;;;;;;;;;;11.80;99.90;;;;;;5095918;28;19912;-77
2022/04/05 09:54:46;;;;;;;;;;;11.90;99.90;;;;;;5096627;28;19908;-75
2022/04/05 09:57:12;;;;;;;;;;;11.90;99.90;;;;;;5095645;28;19942;-75
2022/04/05 09:59:44;;;;;;;;;;;11.90;99.90;;;;;;5094577;28;19908;-75
2022/04/05 10:02:10;;;;;;;;;;;11.90;99.90;;;;;;5094831;28;19920;-75
2022/04/05 10:04:56;;;;;;;;;;;11.90;99.90;;;;;;5096034;28;20280;-76
2022/04/05 10:07:22;;;;;;;;;;;11.90;99.90;;;;;;5093928;28;20392;-76
2022/04/05 10:09:47;;;;;;;;;;;11.90;99.90;;;;;;5095873;28;19981;-76
2022/04/05 10:12:13;;;;;;;;;;;11.90;99.90;;;;;;5095264;28;20262;-77
2022/04/05 10:14:38;;;;;;;;;;;12.00;99.90;;;;;;5095910;28;20048;-76
2022/04/05 10:17:04;;;;;;;;;;;12.00;99.90;;;;;;5095616;28;19915;-76
2022/04/05 10:19:31;;;;;;;;;;;12.00;99.90;;;;;;5095507;28;20349;-78
2022/04/05 10:21:57;;;;;;;;;;;12.00;99.90;;;;;;5095713;28;19908;-77
2022/04/05 10:24:23;;;;;;;;;;;12.10;99.90;;;;;;5095406;28;19916;-77
2022/04/05 10:26:50;;;;;;;;;;;12.20;99.90;;;;;;5095711;28;20377;-77
2022/04/05 10:29:17;;;;;;;;;;;12.10;99.90;;;;;;5094748;28;19950;-77
2022/04/05 10:31:43;;;;;;;;;;;12.20;99.90;;;;;;5095132;28;19912;-76
2022/04/05 10:34:28;;;;;;;;;;;12.30;99.90;;;;;;5098933;28;19929;-74
2022/04/05 10:37:16;;;;;;;;;;;12.40;99.90;;;;;;5109327;28;19915;-77
2022/04/05 10:39:42;;;;;;;;;;;12.40;99.90;;;;;;5095775;28;20006;-77
2022/04/05 10:42:11;;;;;;;;;;;12.50;99.90;;;;;;5094929;28;20027;-77
2022/04/05 10:44:38;;;;;;;;;;;12.50;99.90;;;;;;5095165;28;19920;-77
2022/04/05 10:47:06;;;;;;;;;;;12.60;99.90;;;;;;5094753;28;19988;-78
2022/04/05 10:49:45;;;;;;;;;;;12.70;99.90;;;;;;5092776;28;19938;-77
2022/04/05 10:52:15;;;;;;;;;;;12.60;99.90;;;;;;5100409;28;19918;-77
2022/04/05 10:54:46;;;;;;;;;;;12.70;99.90;;;;;;5098604;28;20023;-79
2022/04/05 10:57:20;;;;;;;;;;;12.90;99.90;;;;;;5093043;28;19996;-77
2022/04/05 10:59:47;;;;;;;;;;;12.90;99.90;;;;;;5094815;28;19908;-77
2022/04/05 11:02:33;;;;;;;;;;;12.80;99.90;;;;;;5093397;28;19920;-77
2022/04/05 11:05:19;;;;;;;;;;;12.80;99.90;;;;;;5094619;28;19954;-77
2022/04/05 11:07:53;;;;;;;;;;;12.90;99.90;;;;;;5089811;28;19973;-77
2022/04/05 11:10:26;;;;;;;;;;;13.20;99.90;;;;;;5093589;28;20376;-78
2022/04/05 11:13:03;;;;;;;;;;;13.30;99.90;;;;;;5094248;28;19935;-78
2022/04/05 11:15:39;;;;;;;;;;;13.40;99.90;;;;;;5092413;28;19908;-75
2022/04/05 11:18:05;;;;;;;;;;;13.40;99.90;;;;;;5094278;28;19912;-75
2022/04/05 11:20:31;;;;;;;;;;;13.30;99.90;;;;;;5093599;28;19908;-75
2022/04/05 11:23:02;;;;;;;;;;;13.10;99.90;;;;;;5094051;28;19915;-77
2022/04/05 11:25:29;;;;;;;;;;;13.00;99.90;;;;;;5093961;28;19942;-76
2022/04/05 11:28:08;;;;;;;;;;;13.00;99.90;;;;;;5094281;28;20012;-75
2022/04/05 11:30:37;;;;;;;;;;;13.10;99.90;;;;;;5104307;28;19919;-76
2022/04/05 11:33:18;;;;;;;;;;;13.20;99.90;;;;;;5106960;28;19912;-75
2022/04/05 11:35:47;;;;;;;;;;;13.30;99.90;;;;;;5093669;28;19908;-75
2022/04/05 11:38:19;;;;;;;;;;;13.30;99.90;;;;;;5093168;28;19908;-75
2022/04/05 11:40:46;;;;;;;;;;;13.30;99.90;;;;;;5093831;28;19916;-76
2022/04/05 11:43:24;;;;;;;;;;;13.50;99.90;;;;;;5093803;28;19955;-77
2022/04/05 11:46:00;;;;;;;;;;;13.50;99.90;;;;;;5094110;28;19915;-76
2022/04/05 11:48:26;;;;;;;;;;;13.50;99.90;;;;;;5092936;28;19908;-76
2022/04/05 11:50:53;;;;;;;;;;;13.50;99.90;;;;;;5093799;28;19912;-76
2022/04/05 11:53:26;;;;;;;;;;;13.60;99.90;;;;;;5092777;28;19919;-76
2022/04/05 11:56:02;;;;;;;;;;;13.60;99.90;;;;;;5093807;28;20002;-76
2022/04/05 11:58:29;;;;;;;;;;;13.70;99.90;;;;;;5093147;28;19912;-76
2022/04/05 12:00:54;;;;;;;;;;;13.60;99.90;;;;;;5093168;28;19947;-76
2022/04/05 12:03:20;;;;;;;;;;;13.60;99.90;;;;;;5093945;28;20246;-77
2022/04/05 12:05:46;;;;;;;;;;;13.60;99.90;;;;;;5102282;28;19935;-77
2022/04/05 12:08:15;;;;;;;;;;;13.60;99.90;;;;;;5094113;28;19955;-78
2022/04/05 12:10:42;;;;;;;;;;;13.60;99.90;;;;;;5093565;28;20397;-78
2022/04/05 12:13:08;;;;;;;;;;;13.50;99.90;;;;;;5093507;28;19916;-78
2022/04/05 12:15:34;;;;;;;;;;;13.50;99.90;;;;;;5092805;28;19933;-78
2022/04/05 12:18:26;;;;;;;;;;;13.40;99.90;;;;;;5093295;28;19915;-78
2022/04/05 12:21:00;;;;;;;;;;;13.40;99.90;;;;;;5093000;28;19908;-78
2022/04/05 12:23:30;;;;;;;;;;;13.40;99.90;;;;;;5092431;28;19965;-78
2022/04/05 12:26:01;;;;;;;;;;;13.30;99.90;;;;;;5093252;28;19962;-78
2022/04/05 12:28:27;;;;;;;;;;;13.40;99.90;;;;;;5092614;28;19912;-78
2022/04/05 12:30:52;;;;;;;;;;;13.30;99.90;;;;;;5092649;28;20341;-78
2022/04/05 12:33:24;;;;;;;;;;;13.20;99.90;;;;;;5092529;28;19912;-78
2022/04/05 12:35:50;;;;;;;;;;;13.20;99.90;;;;;;5092735;28;19961;-77
2022/04/05 12:38:15;;;;;;;;;;;13.20;99.90;;;;;;5092078;28;20323;-78
2022/04/05 12:40:41;;;;;;;;;;;13.20;99.90;;;;;;5091501;28;20357;-77
2022/04/05 12:43:17;;;;;;;;;;;13.20;99.90;;;;;;5092617;28;19912;-77
2022/04/05 12:45:43;;;;;;;;;;;13.40;99.90;;;;;;5092723;28;19908;-77
2022/04/05 12:48:12;;;;;;;;;;;13.50;99.90;;;;;;5092702;28;19973;-77
2022/04/05 12:50:45;;;;;;;;;;;13.50;99.90;;;;;;5092550;28;19968;-77
2022/04/05 12:53:11;;;;;;;;;;;13.60;99.90;;;;;;5092557;28;20365;-77
2022/04/05 12:55:36;;;;;;;;;;;13.50;99.90;;;;;;5092165;28;19908;-77
2022/04/05 12:58:02;;;;;;;;;;;13.70;99.90;;;;;;5091402;28;19912;-77
2022/04/05 13:00:30;;;;;;;;;;;13.80;99.90;;;;;;5090275;28;19919;-78
2022/04/05 13:02:56;;;;;;;;;;;13.80;99.90;;;;;;5092247;28;19927;-78
2022/04/05 13:08:10;;;;;;;;;;;14.00;99.90;;;;;;5092493;28;19915;-77
2022/04/05 13:10:45;;;;;;;;;;;14.10;99.90;;;;;;5091718;28;19912;-77
2022/04/05 13:13:21;;;;;;;;;;;14.40;99.90;;;;;;5092088;28;19912;-77
2022/04/05 13:15:51;;;;;;;;;;;14.40;99.90;;;;;;5092590;28;19915;-78
2022/04/05 13:18:17;;;;;;;;;;;14.40;99.90;;;;;;5104506;28;19912;-78
2022/04/05 13:20:55;;;;;;;;;;;14.30;99.90;;;;;;5094276;28;19908;-78
2022/04/05 13:23:22;;;;;;;;;;;14.20;99.90;;;;;;5091656;28;19977;-77
2022/04/05 13:25:49;;;;;;;;;;;13.90;99.90;;;;;;5092189;28;19966;-77
2022/04/05 13:28:15;;;;;;;;;;;13.80;99.90;;;;;;5091567;28;19915;-78
2022/04/05 13:30:44;;;;;;;;;;;13.70;99.90;;;;;;5092260;28;19912;-77
2022/04/05 13:33:10;;;;;;;;;;;13.60;99.90;;;;;;5091741;28;19935;-77
2022/04/05 13:35:36;;;;;;;;;;;13.60;99.90;;;;;;5091457;28;19909;-77
2022/04/05 13:38:02;;;;;;;;;;;13.70;99.90;;;;;;5092000;28;19912;-77
2022/04/05 13:40:27;;;;;;;;;;;13.90;99.90;;;;;;5091977;28;19912;-77
2022/04/05 13:42:53;;;;;;;;;;;14.10;99.90;;;;;;5091808;28;19934;-77
2022/04/05 13:45:19;;;;;;;;;;;14.10;99.90;;;;;;5091051;28;19908;-78
2022/04/05 13:47:45;;;;;;;;;;;14.10;99.90;;;;;;5091846;28;19931;-77
2022/04/05 13:50:11;;;;;;;;;;;14.10;99.90;;;;;;5091940;28;20345;-78
2022/04/05 13:52:37;;;;;;;;;;;14.20;99.90;;;;;;5091414;28;20466;-78
2022/04/05 13:55:04;;;;;;;;;;;14.20;99.90;;;;;;5091752;28;19909;-78
2022/04/05 13:57:29;;;;;;;;;;;14.10;99.90;;;;;;5090053;28;20341;-78
2022/04/05 13:59:55;;;;;;;;;;;14.10;99.90;;;;;;5092058;28;19923;-77
2022/04/05 14:02:21;;;;;;;;;;;14.00;99.90;;;;;;5091265;28;19958;-77
2022/04/05 14:04:46;;;;;;;;;;;14.00;99.90;;;;;;5091723;28;19999;-77
2022/04/05 14:07:14;;;;;;;;;;;13.90;99.90;;;;;;5092001;28;19908;-78
2022/04/05 14:09:40;;;;;;;;;;;13.70;99.90;;;;;;5091245;28;19919;-77
2022/04/05 14:12:07;;;;;;;;;;;13.70;99.90;;;;;;5091343;28;19959;-78
2022/04/05 14:14:33;;;;;;;;;;;13.80;99.90;;;;;;5091211;28;19914;-77
2022/04/05 14:16:59;;;;;;;;;;;13.80;99.90;;;;;;5091321;28;20352;-77
2022/04/05 14:19:25;;;;;;;;;;;13.90;99.90;;;;;;5089746;28;20022;-78
2022/04/05 14:21:52;;;;;;;;;;;13.90;99.90;;;;;;5091595;28;19996;-78